createdAt,value
2017-11-03T00:01:00.151Z,43.8
2017-11-03T00:02:02.637Z,44.3
2017-11-03T00:03:08.253Z,43.9
2017-11-03T00:04:10.119Z,43.9
2017-11-03T00:05:16.215Z,41.4
2017-11-03T00:06:19.535Z,43.5
2017-11-03T00:07:26.551Z,45.5
2017-11-03T00:08:29.191Z,41.5
2017-11-03T00:09:32.624Z,43.1
2017-11-03T00:10:35.094Z,43.6
2017-11-03T00:11:37.759Z,42.2
2017-11-03T00:12:40.876Z,43.3
2017-11-03T00:13:43.484Z,44.4
2017-11-03T00:14:47.590Z,43.5
2017-11-03T00:15:50.281Z,43.8
2017-11-03T00:16:58.740Z,41.6
2017-11-03T00:18:08.993Z,43.7
2017-11-03T00:19:10.724Z,42.1
2017-11-03T00:20:12.452Z,42.9
2017-11-03T00:21:14.144Z,42.1
2017-11-03T00:22:15.882Z,42.3
2017-11-03T00:23:17.551Z,42.9
2017-11-03T00:24:19.231Z,43.7
2017-11-03T00:25:20.906Z,46.0
2017-11-03T00:26:22.595Z,45.0
2017-11-03T00:27:24.917Z,45.4
2017-11-03T00:28:26.644Z,44.3
2017-11-03T00:29:28.360Z,45.3
2017-11-03T00:30:30.128Z,46.4
2017-11-03T00:31:31.859Z,45.3
2017-11-03T00:32:33.599Z,45.7
2017-11-03T00:33:35.324Z,47.5
2017-11-03T00:34:36.996Z,47.6
2017-11-03T00:35:38.659Z,46.9
2017-11-03T00:36:40.319Z,47.6
2017-11-03T00:37:41.984Z,49.0
2017-11-03T00:38:43.642Z,46.0
2017-11-03T00:39:45.311Z,45.4
2017-11-03T00:40:46.968Z,46.4
2017-11-03T00:41:48.630Z,49.0
2017-11-03T00:42:50.298Z,45.3
2017-11-03T00:43:51.956Z,46.0
2017-11-03T00:44:53.613Z,46.3
2017-11-03T00:45:55.294Z,49.5
2017-11-03T00:46:56.949Z,49.7
2017-11-03T00:47:58.604Z,50.8
2017-11-03T00:49:00.271Z,50.1
2017-11-03T00:50:01.948Z,49.7
2017-11-03T00:51:03.598Z,50.5
2017-11-03T00:52:05.263Z,49.1
2017-11-03T00:53:06.924Z,50.5
2017-11-03T00:54:08.584Z,49.5
2017-11-03T00:55:10.826Z,50.8
2017-11-03T00:56:12.494Z,51.4
2017-11-03T00:57:14.163Z,50.1
2017-11-03T00:58:15.890Z,51.6
2017-11-03T00:59:17.554Z,49.9
2017-11-03T01:00:19.217Z,47.4
2017-11-03T01:01:20.870Z,50.3
2017-11-03T01:02:22.534Z,48.1
2017-11-03T01:03:24.191Z,49.2
2017-11-03T01:04:25.861Z,50.2
2017-11-03T01:05:27.518Z,51.5
2017-11-03T01:06:29.173Z,51.5
2017-11-03T01:07:30.828Z,50.8
2017-11-03T01:08:32.486Z,49.4
2017-11-03T01:09:34.145Z,50.2
2017-11-03T01:10:35.811Z,50.6
2017-11-03T01:11:37.489Z,49.8
2017-11-03T01:12:39.146Z,47.7
2017-11-03T01:13:40.835Z,50.1
2017-11-03T01:14:42.498Z,50.7
2017-11-03T01:15:44.157Z,51.9
2017-11-03T01:16:45.831Z,50.0
2017-11-03T01:17:47.491Z,49.5
2017-11-03T01:18:49.150Z,48.1
2017-11-03T01:19:50.820Z,50.1
2017-11-03T01:20:52.488Z,50.7
2017-11-03T01:21:54.149Z,48.6
2017-11-03T01:22:55.819Z,49.6
2017-11-03T01:23:57.490Z,49.7
2017-11-03T01:24:59.144Z,50.4
2017-11-03T01:26:00.807Z,50.0
2017-11-03T01:27:02.477Z,49.3
2017-11-03T01:28:04.135Z,51.0
2017-11-03T01:29:05.791Z,50.3
2017-11-03T01:30:07.478Z,50.7
2017-11-03T01:31:09.143Z,50.5
2017-11-03T01:32:10.795Z,51.9
2017-11-03T01:33:12.460Z,50.9
2017-11-03T01:34:14.127Z,50.2
2017-11-03T01:35:15.792Z,51.4
2017-11-03T01:36:17.450Z,50.8
2017-11-03T01:37:19.109Z,50.7
2017-11-03T01:38:20.775Z,50.7
2017-11-03T01:39:22.435Z,50.6
2017-11-03T01:40:24.098Z,50.7
2017-11-03T01:41:25.752Z,51.8
2017-11-03T01:42:27.410Z,50.9
2017-11-03T01:43:29.066Z,49.8
2017-11-03T01:44:30.727Z,48.4
2017-11-03T01:45:32.390Z,50.3
2017-11-03T01:46:34.144Z,49.3
2017-11-03T01:47:35.809Z,49.1
2017-11-03T01:48:37.456Z,50.6
2017-11-03T01:49:39.115Z,51.3
2017-11-03T01:50:40.778Z,50.1
2017-11-03T01:51:42.437Z,51.0
2017-11-03T01:52:44.109Z,48.3
2017-11-03T01:53:45.778Z,47.6
2017-11-03T01:54:47.441Z,49.0
2017-11-03T01:55:49.100Z,48.4
2017-11-03T01:56:50.755Z,48.0
2017-11-03T01:57:52.423Z,46.2
2017-11-03T01:58:54.085Z,49.6
2017-11-03T01:59:55.755Z,49.3
2017-11-03T02:00:57.428Z,48.6
2017-11-03T02:01:59.109Z,47.9
2017-11-03T02:03:00.765Z,48.4
2017-11-03T02:04:02.455Z,47.1
2017-11-03T02:05:04.118Z,48.0
2017-11-03T02:06:05.783Z,48.0
2017-11-03T02:07:07.448Z,48.5
2017-11-03T02:08:09.112Z,47.8
2017-11-03T02:09:10.798Z,48.9
2017-11-03T02:10:12.464Z,46.4
2017-11-03T02:11:14.148Z,48.2
2017-11-03T02:12:15.840Z,48.4
2017-11-03T02:13:17.495Z,47.7
2017-11-03T02:14:19.196Z,48.6
2017-11-03T02:15:20.855Z,46.7
2017-11-03T02:16:22.514Z,48.5
2017-11-03T02:17:24.162Z,47.6
2017-11-03T02:18:25.825Z,49.8
2017-11-03T02:19:27.496Z,46.8
2017-11-03T02:20:29.167Z,48.1
2017-11-03T02:21:30.832Z,47.0
2017-11-03T02:22:32.495Z,49.5
2017-11-03T02:23:34.149Z,46.2
2017-11-03T02:24:35.814Z,47.7
2017-11-03T02:25:37.470Z,49.0
2017-11-03T02:26:39.129Z,47.8
2017-11-03T02:27:40.795Z,46.9
2017-11-03T02:28:42.448Z,49.1
2017-11-03T02:29:44.107Z,46.7
2017-11-03T02:30:45.777Z,48.4
2017-11-03T02:31:47.431Z,50.4
2017-11-03T02:32:49.087Z,49.2
2017-11-03T02:33:50.749Z,51.1
2017-11-03T02:34:52.412Z,50.5
2017-11-03T02:35:54.067Z,50.6
2017-11-03T02:36:55.740Z,50.2
2017-11-03T02:37:57.402Z,50.1
2017-11-03T02:38:59.074Z,50.7
2017-11-03T02:40:00.729Z,48.7
2017-11-03T02:41:02.383Z,49.6
2017-11-03T02:42:04.045Z,50.1
2017-11-03T02:43:05.713Z,52.1
2017-11-03T02:44:07.370Z,53.3
2017-11-03T02:45:09.033Z,50.5
2017-11-03T02:46:10.733Z,49.1
2017-11-03T02:47:12.416Z,50.8
2017-11-03T02:48:14.083Z,51.7
2017-11-03T02:49:15.747Z,50.5
2017-11-03T02:50:17.401Z,50.5
2017-11-03T02:51:19.065Z,48.4
2017-11-03T02:52:20.767Z,49.9
2017-11-03T02:53:22.419Z,49.1
2017-11-03T02:54:24.081Z,49.8
2017-11-03T03:00:55.854Z,41.1
2017-11-03T03:01:57.509Z,43.2
2017-11-03T03:02:59.171Z,48.5
2017-11-03T03:04:00.833Z,50.5
2017-11-03T03:05:02.469Z,49.6
2017-11-03T03:06:04.166Z,51.0
2017-11-03T03:07:05.820Z,50.9
2017-11-03T03:08:07.474Z,51.7
2017-11-03T03:09:09.121Z,52.8
2017-11-03T03:10:10.775Z,54.3
2017-11-03T03:11:12.443Z,53.2
2017-11-03T03:12:14.102Z,52.9
2017-11-03T03:13:15.762Z,51.0
2017-11-03T03:14:17.417Z,50.7
2017-11-03T03:15:19.088Z,52.6
2017-11-03T03:16:20.741Z,52.1
2017-11-03T03:17:22.406Z,53.1
2017-11-03T03:18:24.056Z,54.7
2017-11-03T03:19:25.721Z,54.6
2017-11-03T03:20:27.553Z,54.2
2017-11-03T03:21:29.208Z,53.2
2017-11-03T03:22:30.862Z,52.6
2017-11-03T03:23:32.507Z,54.2
2017-11-03T03:24:34.381Z,54.4
2017-11-03T03:25:36.769Z,51.6
2017-11-03T03:26:38.396Z,52.3
2017-11-03T03:27:40.051Z,51.7
2017-11-03T03:28:41.829Z,50.2
2017-11-03T03:29:43.495Z,49.7
2017-11-03T03:30:45.151Z,47.9
2017-11-03T03:31:46.811Z,50.7
2017-11-03T03:32:48.481Z,47.9
2017-11-03T03:33:50.137Z,48.1
2017-11-03T03:34:51.792Z,50.2
2017-11-03T03:35:53.451Z,49.1
2017-11-03T03:36:55.111Z,49.0
2017-11-03T03:37:56.768Z,47.2
2017-11-03T03:38:58.423Z,47.6
2017-11-03T03:40:00.077Z,47.1
2017-11-03T03:41:01.723Z,44.7
2017-11-03T03:42:03.373Z,45.5
2017-11-03T03:43:05.031Z,44.4
2017-11-03T03:44:06.697Z,44.2
2017-11-03T03:45:08.344Z,43.1
2017-11-03T03:46:09.998Z,41.0
2017-11-03T03:47:11.656Z,40.9
2017-11-03T03:48:13.316Z,40.9
2017-11-03T03:49:14.979Z,40.6
2017-11-03T03:50:16.655Z,40.0
2017-11-03T03:51:18.290Z,40.1
2017-11-03T03:52:19.942Z,38.5
2017-11-03T03:53:21.634Z,39.1
2017-11-03T03:54:23.281Z,38.6
2017-11-03T03:55:24.930Z,40.2
2017-11-03T03:56:26.585Z,40.0
2017-11-03T03:57:28.258Z,41.5
2017-11-03T03:58:29.912Z,38.0
2017-11-03T03:59:31.572Z,40.6
2017-11-03T04:00:33.236Z,40.2
2017-11-03T04:01:34.889Z,38.7
2017-11-03T04:02:36.558Z,39.2
2017-11-03T04:03:38.215Z,40.0
2017-11-03T04:04:39.876Z,38.6
2017-11-03T04:05:41.531Z,39.9
2017-11-03T04:06:43.218Z,38.6
2017-11-03T04:07:44.870Z,40.5
2017-11-03T04:08:46.528Z,38.5
2017-11-03T04:09:48.241Z,39.4
2017-11-03T04:10:49.900Z,38.2
2017-11-03T04:11:51.553Z,39.5
2017-11-03T04:12:53.208Z,39.3
2017-11-03T04:13:54.874Z,39.6
2017-11-03T04:14:56.527Z,39.5
2017-11-03T04:15:58.219Z,39.4
2017-11-03T04:16:59.876Z,38.1
2017-11-03T04:18:01.531Z,38.5
2017-11-03T04:19:03.179Z,38.9
2017-11-03T04:20:04.839Z,38.6
2017-11-03T04:21:06.502Z,37.2
2017-11-03T04:22:08.152Z,37.1
2017-11-03T04:23:09.815Z,39.1
2017-11-03T04:24:11.478Z,38.1
2017-11-03T04:25:13.129Z,37.6
2017-11-03T04:26:14.815Z,34.3
2017-11-03T04:27:16.486Z,34.1
2017-11-03T04:28:18.155Z,32.8
2017-11-03T04:29:19.815Z,32.8
2017-11-03T04:30:21.494Z,35.9
2017-11-03T04:31:23.145Z,36.5
2017-11-03T04:32:24.808Z,37.1
2017-11-03T04:33:26.460Z,37.9
2017-11-03T04:34:28.129Z,38.9
2017-11-03T04:35:29.783Z,36.8
2017-11-03T04:36:31.443Z,36.7
2017-11-03T04:37:33.103Z,36.5
2017-11-03T04:38:34.754Z,34.6
2017-11-03T04:39:36.403Z,35.2
2017-11-03T04:40:38.052Z,36.4
2017-11-03T04:41:39.718Z,35.5
2017-11-03T04:42:41.380Z,35.4
2017-11-03T04:43:43.031Z,35.4
2017-11-03T04:44:44.687Z,33.1
2017-11-03T04:45:46.348Z,34.4
2017-11-03T04:46:48.020Z,36.0
2017-11-03T04:47:49.688Z,36.3
2017-11-03T04:48:51.351Z,37.0
2017-11-03T04:49:53.018Z,37.1
2017-11-03T04:50:54.678Z,36.6
2017-11-03T04:51:56.351Z,36.4
2017-11-03T04:52:58.006Z,36.0
2017-11-03T04:53:59.660Z,34.8
2017-11-03T04:55:01.315Z,35.7
2017-11-03T04:56:02.975Z,34.9
2017-11-03T04:57:04.631Z,35.3
2017-11-03T04:58:06.283Z,33.7
2017-11-03T04:59:07.937Z,34.1
2017-11-03T05:00:09.624Z,34.1
2017-11-03T05:01:11.290Z,34.3
2017-11-03T05:02:12.953Z,34.6
2017-11-03T05:03:14.634Z,33.3
2017-11-03T05:04:16.318Z,34.9
2017-11-03T05:05:17.996Z,35.0
2017-11-03T05:06:19.648Z,35.2
2017-11-03T05:07:21.297Z,36.6
2017-11-03T05:08:22.963Z,36.7
2017-11-03T05:09:24.624Z,33.4
2017-11-03T05:10:26.280Z,36.9
2017-11-03T05:11:27.930Z,35.3
2017-11-03T05:12:29.590Z,34.4
2017-11-03T05:13:31.241Z,35.7
2017-11-03T05:14:32.901Z,37.1
2017-11-03T05:15:34.551Z,34.7
2017-11-03T05:16:36.726Z,36.7
2017-11-03T05:17:38.379Z,35.7
2017-11-03T05:18:40.028Z,38.0
2017-11-03T05:19:41.700Z,37.3
2017-11-03T05:20:43.354Z,38.0
2017-11-03T05:21:45.015Z,37.8
2017-11-03T05:22:46.689Z,37.0
2017-11-03T05:23:48.342Z,37.5
2017-11-03T05:24:50.013Z,36.6
2017-11-03T05:25:51.679Z,36.6
2017-11-03T05:26:53.337Z,35.7
2017-11-03T05:27:54.986Z,34.7
2017-11-03T05:28:56.634Z,34.2
2017-11-03T05:29:58.304Z,36.4
2017-11-03T05:30:59.962Z,35.1
2017-11-03T05:32:01.645Z,35.1
2017-11-03T05:33:03.292Z,36.1
2017-11-03T05:34:04.948Z,35.6
2017-11-03T05:35:06.602Z,35.4
2017-11-03T05:36:08.254Z,37.5
2017-11-03T05:37:09.911Z,35.3
2017-11-03T05:38:11.571Z,34.6
2017-11-03T05:39:13.264Z,38.4
2017-11-03T05:40:14.921Z,37.1
2017-11-03T05:41:16.643Z,39.0
2017-11-03T05:42:18.287Z,39.4
2017-11-03T05:43:19.954Z,38.4
2017-11-03T05:44:21.611Z,37.6
2017-11-03T05:45:23.273Z,36.6
2017-11-03T05:46:24.937Z,41.9
2017-11-03T05:47:26.590Z,41.7
2017-11-03T05:48:28.242Z,46.0
2017-11-03T05:49:29.899Z,45.2
2017-11-03T05:50:31.596Z,44.8
2017-11-03T05:51:33.249Z,49.6
2017-11-03T05:52:34.924Z,47.9
2017-11-03T05:53:36.575Z,54.7
2017-11-03T05:54:38.298Z,49.9
2017-11-03T05:55:39.957Z,47.9
2017-11-03T05:56:41.619Z,43.5
2017-11-03T05:57:43.279Z,44.8
2017-11-03T05:58:44.931Z,44.4
2017-11-03T05:59:46.588Z,45.4
2017-11-03T06:00:48.252Z,47.8
2017-11-03T06:01:49.907Z,45.9
2017-11-03T06:02:51.562Z,42.8
2017-11-03T06:03:53.222Z,42.5
2017-11-03T06:04:54.876Z,43.5
2017-11-03T06:05:56.549Z,42.7
2017-11-03T06:06:58.876Z,41.2
2017-11-03T06:08:00.536Z,40.3
2017-11-03T06:09:02.215Z,38.9
2017-11-03T06:10:03.869Z,38.8
2017-11-03T06:11:05.523Z,39.8
2017-11-03T06:12:07.176Z,39.5
2017-11-03T06:13:08.876Z,41.7
2017-11-03T06:14:10.537Z,40.5
2017-11-03T06:15:12.203Z,41.9
2017-11-03T06:16:13.867Z,42.0
2017-11-03T06:17:15.521Z,41.8
2017-11-03T06:18:17.173Z,42.8
2017-11-03T06:19:18.839Z,42.6
2017-11-03T06:20:20.498Z,44.7
2017-11-03T06:21:22.160Z,41.4
2017-11-03T06:22:23.810Z,42.3
2017-11-03T06:23:25.459Z,40.6
2017-11-03T06:24:27.112Z,39.0
2017-11-03T06:25:28.773Z,39.4
2017-11-03T06:26:30.429Z,40.7
2017-11-03T06:27:32.088Z,40.2
2017-11-03T06:28:33.753Z,38.9
2017-11-03T06:29:35.415Z,39.2
2017-11-03T06:30:37.071Z,38.9
2017-11-03T06:31:38.725Z,39.4
2017-11-03T06:32:40.380Z,37.1
2017-11-03T06:33:42.045Z,38.6
2017-11-03T06:34:43.698Z,39.6
2017-11-03T06:35:45.350Z,41.3
2017-11-03T06:36:47.018Z,40.3
2017-11-03T06:37:48.676Z,40.7
2017-11-03T06:38:50.338Z,40.0
2017-11-03T06:39:51.996Z,42.9
2017-11-03T06:40:53.649Z,42.1
2017-11-03T06:41:55.307Z,40.7
2017-11-03T06:42:56.962Z,41.2
2017-11-03T06:43:58.636Z,41.9
2017-11-03T06:45:00.324Z,42.5
2017-11-03T06:46:01.985Z,41.9
2017-11-03T06:47:03.645Z,41.4
2017-11-03T06:48:05.306Z,40.1
2017-11-03T06:49:06.976Z,38.5
2017-11-03T06:50:08.633Z,38.3
2017-11-03T06:51:10.293Z,39.4
2017-11-03T06:52:11.945Z,38.2
2017-11-03T06:53:13.614Z,39.4
2017-11-03T06:54:15.278Z,38.7
2017-11-03T06:55:16.929Z,36.9
2017-11-03T07:01:45.009Z,31.6
2017-11-03T07:02:46.660Z,35.4
2017-11-03T07:03:48.315Z,39.0
2017-11-03T07:04:49.994Z,40.9
2017-11-03T07:05:51.650Z,41.0
2017-11-03T07:06:53.315Z,42.3
2017-11-03T07:07:54.970Z,40.8
2017-11-03T07:08:56.637Z,42.3
2017-11-03T07:09:58.286Z,39.8
2017-11-03T07:10:59.945Z,41.5
2017-11-03T07:12:01.596Z,42.3
2017-11-03T07:13:03.247Z,41.0
2017-11-03T07:14:04.905Z,41.0
2017-11-03T07:15:06.560Z,42.9
2017-11-03T07:16:08.218Z,43.0
2017-11-03T07:17:09.867Z,41.3
2017-11-03T07:18:11.517Z,41.2
2017-11-03T07:19:13.237Z,43.6
2017-11-03T07:20:14.888Z,42.9
2017-11-03T07:21:16.547Z,44.8
2017-11-03T07:22:18.205Z,43.9
2017-11-03T07:23:19.878Z,45.3
2017-11-03T07:24:21.545Z,43.5
2017-11-03T07:25:23.208Z,47.4
2017-11-03T07:26:24.863Z,51.1
2017-11-03T07:27:26.525Z,52.6
2017-11-03T07:28:28.206Z,45.1
2017-11-03T07:29:29.862Z,47.4
2017-11-03T07:30:31.529Z,49.5
2017-11-03T07:31:33.228Z,49.7
2017-11-03T07:32:34.852Z,51.1
2017-11-03T07:33:36.557Z,50.7
2017-11-03T07:34:38.260Z,57.1
2017-11-03T07:35:39.928Z,52.3
2017-11-03T07:36:41.584Z,49.6
2017-11-03T07:37:43.281Z,49.8
2017-11-03T07:38:44.936Z,52.9
2017-11-03T07:39:46.602Z,53.4
2017-11-03T07:40:48.252Z,50.6
2017-11-03T07:41:49.911Z,48.9
2017-11-03T07:42:51.590Z,49.4
2017-11-03T07:43:53.265Z,48.7
2017-11-03T07:44:54.922Z,50.1
2017-11-03T07:45:56.580Z,51.4
2017-11-03T07:46:58.245Z,52.0
2017-11-03T07:47:59.908Z,48.5
2017-11-03T07:49:01.635Z,55.7
2017-11-03T07:50:03.285Z,52.1
2017-11-03T07:51:04.940Z,51.2
2017-11-03T07:52:06.602Z,54.1
2017-11-03T07:53:08.271Z,54.2
2017-11-03T07:54:09.930Z,52.2
2017-11-03T07:55:11.597Z,57.3
2017-11-03T07:56:13.265Z,58.4
2017-11-03T07:57:23.461Z,53.9
2017-11-03T07:58:32.777Z,59.1
2017-11-03T07:59:40.582Z,55.5
2017-11-03T08:00:44.503Z,54.4
2017-11-03T08:01:50.147Z,55.0
2017-11-03T08:02:58.163Z,56.0
2017-11-03T08:04:04.889Z,53.6
2017-11-03T08:05:06.551Z,60.4
2017-11-03T08:06:08.256Z,59.5
2017-11-03T08:07:09.972Z,64.9
2017-11-03T08:08:11.753Z,62.2
2017-11-03T08:09:13.490Z,61.8
2017-11-03T08:10:15.180Z,58.4
2017-11-03T08:11:17.561Z,55.5
2017-11-03T08:12:19.303Z,62.7
2017-11-03T08:13:21.029Z,59.0
2017-11-03T08:14:22.892Z,62.4
2017-11-03T08:15:24.726Z,60.6
2017-11-03T08:16:27.125Z,62.1
2017-11-03T08:17:28.948Z,61.5
2017-11-03T08:18:30.702Z,66.8
2017-11-03T08:19:32.451Z,65.4
2017-11-03T08:20:34.177Z,63.9
2017-11-03T08:21:35.967Z,62.4
2017-11-03T08:22:37.704Z,61.1
2017-11-03T08:23:39.468Z,65.0
2017-11-03T08:24:41.247Z,58.7
2017-11-03T08:25:43.024Z,59.4
2017-11-03T08:26:44.814Z,60.9
2017-11-03T08:27:46.551Z,64.5
2017-11-03T08:28:48.343Z,66.3
2017-11-03T08:29:50.141Z,65.9
2017-11-03T08:30:53.550Z,64.9
2017-11-03T08:31:55.203Z,61.3
2017-11-03T08:32:56.960Z,66.4
2017-11-03T08:33:58.642Z,64.7
2017-11-03T08:35:00.355Z,75.5
2017-11-03T08:36:02.053Z,80.5
2017-11-03T08:37:03.865Z,86.1
2017-11-03T08:38:05.578Z,75.8
2017-11-03T08:39:09.833Z,68.8
2017-11-03T08:40:11.491Z,70.2
2017-11-03T08:41:13.346Z,71.4
2017-11-03T08:42:15.089Z,85.7
2017-11-03T08:43:16.866Z,81.8
2017-11-03T08:44:18.569Z,85.8
2017-11-03T08:45:22.356Z,74.4
2017-11-03T08:46:24.346Z,81.5
2017-11-03T08:47:26.120Z,74.1
2017-11-03T08:48:28.019Z,73.8
2017-11-03T08:49:29.832Z,68.1
2017-11-03T08:50:31.629Z,58.5
2017-11-03T08:51:33.402Z,64.2
2017-11-03T08:52:35.157Z,61.8
2017-11-03T08:53:38.032Z,57.7
2017-11-03T08:54:39.835Z,59.7
2017-11-03T08:55:41.605Z,67.4
2017-11-03T08:56:43.364Z,59.4
2017-11-03T08:57:45.179Z,62.1
2017-11-03T08:58:46.915Z,63.5
2017-11-03T08:59:48.660Z,66.2
2017-11-03T09:00:50.433Z,67.2
2017-11-03T09:01:52.168Z,69.4
2017-11-03T09:02:53.958Z,65.9
2017-11-03T09:03:55.727Z,68.4
2017-11-03T09:04:57.540Z,65.8
2017-11-03T09:05:59.299Z,69.3
2017-11-03T09:07:01.115Z,73.2
2017-11-03T09:08:02.919Z,67.4
2017-11-03T09:09:05.483Z,66.3
2017-11-03T09:10:07.214Z,66.5
2017-11-03T09:11:09.301Z,75.2
2017-11-03T09:12:11.085Z,70.0
2017-11-03T09:13:13.160Z,69.1
2017-11-03T09:14:14.896Z,67.6
2017-11-03T09:15:16.665Z,60.1
2017-11-03T09:16:18.415Z,64.3
2017-11-03T09:17:20.217Z,63.9
2017-11-03T09:18:21.991Z,68.9
2017-11-03T09:19:24.601Z,64.9
2017-11-03T09:20:26.335Z,73.1
2017-11-03T09:21:28.144Z,74.8
2017-11-03T09:22:30.111Z,73.0
2017-11-03T09:23:31.846Z,86.6
2017-11-03T09:24:33.583Z,66.2
2017-11-03T09:25:35.384Z,72.1
2017-11-03T09:26:37.139Z,69.5
2017-11-03T09:27:38.879Z,65.2
2017-11-03T09:28:40.684Z,67.6
2017-11-03T09:29:42.480Z,64.9
2017-11-03T09:30:44.484Z,66.2
2017-11-03T09:31:46.256Z,61.9
2017-11-03T09:32:48.089Z,59.3
2017-11-03T09:33:50.837Z,59.0
2017-11-03T09:34:52.986Z,54.9
2017-11-03T09:35:54.780Z,58.9
2017-11-03T09:36:56.572Z,58.6
2017-11-03T09:37:58.323Z,64.3
2017-11-03T09:39:00.945Z,65.3
2017-11-03T09:40:02.888Z,62.9
2017-11-03T09:41:08.789Z,61.8
2017-11-03T09:42:10.542Z,59.6
2017-11-03T09:43:59.999Z,59.3
2017-11-03T09:45:01.795Z,62.9
2017-11-03T09:46:03.478Z,63.6
2017-11-03T09:47:05.829Z,63.8
2017-11-03T09:48:18.749Z,62.8
2017-11-03T09:49:19.564Z,59.9
2017-11-03T09:50:32.880Z,64.5
2017-11-03T09:51:35.511Z,58.0
2017-11-03T09:52:37.471Z,64.9
2017-11-03T09:53:39.132Z,58.9
2017-11-03T09:54:40.825Z,63.6
2017-11-03T09:55:42.483Z,61.4
2017-11-03T09:56:44.170Z,57.3
2017-11-03T09:57:45.833Z,57.4
2017-11-03T09:58:47.498Z,59.7
2017-11-03T09:59:49.160Z,55.7
2017-11-03T10:00:50.826Z,59.8
2017-11-03T10:01:52.491Z,58.1
2017-11-03T10:02:54.195Z,57.4
2017-11-03T10:03:55.864Z,57.0
2017-11-03T10:04:57.560Z,52.5
2017-11-03T10:05:59.241Z,51.0
2017-11-03T10:07:00.898Z,53.1
2017-11-03T10:08:02.571Z,53.0
2017-11-03T10:09:04.253Z,52.3
2017-11-03T10:10:05.950Z,51.3
2017-11-03T10:11:07.635Z,52.0
2017-11-03T10:12:09.307Z,49.8
2017-11-03T10:13:10.973Z,51.4
2017-11-03T10:14:12.633Z,52.1
2017-11-03T10:15:14.313Z,56.7
2017-11-03T10:16:15.975Z,51.8
2017-11-03T10:17:17.643Z,52.4
2017-11-03T10:18:19.317Z,52.4
2017-11-03T10:19:20.995Z,53.2
2017-11-03T10:20:22.647Z,48.8
2017-11-03T10:21:24.317Z,46.1
2017-11-03T10:22:25.988Z,49.4
2017-11-03T10:23:27.688Z,50.8
2017-11-03T10:24:29.349Z,48.1
2017-11-03T10:25:31.025Z,48.7
2017-11-03T10:26:32.697Z,46.2
2017-11-03T10:27:34.360Z,48.1
2017-11-03T10:28:36.063Z,44.7
2017-11-03T10:29:37.731Z,44.5
2017-11-03T10:30:39.419Z,41.5
2017-11-03T10:31:41.076Z,43.7
2017-11-03T10:32:42.757Z,44.9
2017-11-03T10:33:44.430Z,39.8
2017-11-03T10:34:46.161Z,37.3
2017-11-03T10:35:47.834Z,39.6
2017-11-03T10:36:49.542Z,43.1
2017-11-03T10:37:51.225Z,38.5
2017-11-03T10:38:52.927Z,35.8
2017-11-03T10:39:54.594Z,37.9
2017-11-03T10:40:56.272Z,37.8
2017-11-03T10:41:57.948Z,37.8
2017-11-03T10:42:59.610Z,38.2
2017-11-03T10:44:01.308Z,36.5
2017-11-03T10:45:06.636Z,37.2
2017-11-03T10:46:09.631Z,38.5
2017-11-03T10:47:16.377Z,34.0
2017-11-03T10:48:17.001Z,38.0
2017-11-03T10:49:18.681Z,32.0
2017-11-03T10:50:20.343Z,32.6
2017-11-03T10:51:22.014Z,33.7
2017-11-03T10:52:23.699Z,32.4
2017-11-03T10:53:25.369Z,31.5
2017-11-03T10:54:27.044Z,27.6
2017-11-03T10:55:29.051Z,27.7
2017-11-03T11:01:24.346Z,23.8
2017-11-03T11:02:26.032Z,27.1
2017-11-03T11:03:27.724Z,31.6
2017-11-03T11:04:29.386Z,31.6
2017-11-03T11:05:31.061Z,31.1
2017-11-03T11:06:32.720Z,27.3
2017-11-03T11:07:34.385Z,29.7
2017-11-03T11:08:36.045Z,27.9
2017-11-03T11:09:37.794Z,30.0
2017-11-03T11:10:39.468Z,28.7
2017-11-03T11:11:41.137Z,28.3
2017-11-03T11:12:42.848Z,27.6
2017-11-03T11:13:44.524Z,26.6
2017-11-03T11:14:46.253Z,28.0
2017-11-03T11:15:48.362Z,26.3
2017-11-03T11:16:50.025Z,24.7
2017-11-03T11:17:51.740Z,25.9
2017-11-03T11:18:53.401Z,22.3
2017-11-03T11:19:55.062Z,23.4
2017-11-03T11:20:56.743Z,22.2
2017-11-03T11:21:58.469Z,22.9
2017-11-03T11:23:00.132Z,22.1
2017-11-03T11:24:01.795Z,22.1
2017-11-03T11:25:03.550Z,21.8
2017-11-03T11:26:05.213Z,20.9
2017-11-03T11:27:06.910Z,22.0
2017-11-03T11:28:08.574Z,22.0
2017-11-03T11:29:10.248Z,19.7
2017-11-03T11:30:11.923Z,19.2
2017-11-03T11:31:13.873Z,20.2
2017-11-03T11:32:15.689Z,18.1
2017-11-03T11:33:17.356Z,19.0
2017-11-03T11:34:19.037Z,19.7
2017-11-03T11:35:20.889Z,18.1
2017-11-03T11:36:22.793Z,18.3
2017-11-03T11:37:24.462Z,16.9
2017-11-03T11:38:26.120Z,17.3
2017-11-03T11:39:27.798Z,17.5
2017-11-03T11:40:29.767Z,18.1
2017-11-03T11:41:32.324Z,19.4
2017-11-03T11:42:33.600Z,18.8
2017-11-03T11:43:35.276Z,19.4
2017-11-03T11:44:36.961Z,17.5
2017-11-03T11:45:38.656Z,16.5
2017-11-03T11:46:40.330Z,18.0
2017-11-03T11:47:42.479Z,16.7
2017-11-03T11:48:44.184Z,18.4
2017-11-03T11:49:45.871Z,20.3
2017-11-03T11:50:48.094Z,20.2
2017-11-03T11:51:50.024Z,18.6
2017-11-03T11:52:51.702Z,20.3
2017-11-03T11:53:53.363Z,21.1
2017-11-03T11:54:55.037Z,20.4
2017-11-03T11:55:57.547Z,21.6
2017-11-03T11:56:59.338Z,19.3
2017-11-03T11:58:01.008Z,18.3
2017-11-03T11:59:02.672Z,18.2
2017-11-03T12:00:04.336Z,18.3
2017-11-03T12:01:06.130Z,19.2
2017-11-03T12:02:08.222Z,19.1
2017-11-03T12:03:09.917Z,18.8
2017-11-03T12:04:11.595Z,20.0
2017-11-03T12:05:13.267Z,21.1
2017-11-03T12:06:14.941Z,20.7
2017-11-03T12:07:18.638Z,21.3
2017-11-03T12:08:20.320Z,23.8
2017-11-03T12:09:21.992Z,22.6
2017-11-03T12:10:28.214Z,22.8
2017-11-03T12:11:29.675Z,23.8
2017-11-03T12:12:31.350Z,25.3
2017-11-03T12:13:33.020Z,26.2
2017-11-03T12:14:34.694Z,24.8
2017-11-03T12:15:36.383Z,23.2
2017-11-03T12:16:38.037Z,24.6
2017-11-03T12:17:39.711Z,24.2
2017-11-03T12:18:41.396Z,24.4
2017-11-03T12:19:43.081Z,24.8
2017-11-03T12:20:45.996Z,24.3
2017-11-03T12:21:48.382Z,24.6
2017-11-03T12:22:50.060Z,22.5
2017-11-03T12:23:51.722Z,22.9
2017-11-03T12:24:53.493Z,22.6
2017-11-03T12:25:57.550Z,22.5
2017-11-03T12:26:59.412Z,23.1
2017-11-03T12:28:01.158Z,22.4
2017-11-03T12:29:02.971Z,23.1
2017-11-03T12:30:05.070Z,22.3
2017-11-03T12:31:07.803Z,20.6
2017-11-03T12:32:09.611Z,21.6
2017-11-03T12:33:11.416Z,18.9
2017-11-03T12:34:13.191Z,19.6
2017-11-03T12:35:15.077Z,18.6
2017-11-03T12:36:17.657Z,18.5
2017-11-03T12:37:19.409Z,18.1
2017-11-03T12:38:21.335Z,18.6
2017-11-03T12:39:23.185Z,19.7
2017-11-03T12:40:25.258Z,18.1
2017-11-03T12:41:27.962Z,18.9
2017-11-03T12:42:31.491Z,17.9
2017-11-03T12:43:33.228Z,17.0
2017-11-03T12:44:35.052Z,14.8
2017-11-03T12:45:37.833Z,15.4
2017-11-03T12:46:41.538Z,13.6
2017-11-03T12:47:43.267Z,13.6
2017-11-03T12:48:45.019Z,14.2
2017-11-03T12:49:46.743Z,14.1
2017-11-03T12:50:48.525Z,13.9
2017-11-03T12:51:50.290Z,14.5
2017-11-03T12:52:52.095Z,13.9
2017-11-03T12:53:54.878Z,15.7
2017-11-03T12:54:56.636Z,14.5
2017-11-03T12:55:58.405Z,14.4
2017-11-03T12:57:00.200Z,15.1
2017-11-03T12:58:01.955Z,14.7
2017-11-03T12:59:03.673Z,15.0
2017-11-03T13:00:05.430Z,15.4
2017-11-03T13:01:07.301Z,13.9
2017-11-03T13:02:09.122Z,13.9
2017-11-03T13:03:10.939Z,13.9
2017-11-03T13:04:12.688Z,14.9
2017-11-03T13:05:14.437Z,14.8
2017-11-03T13:06:16.221Z,14.3
2017-11-03T13:07:18.007Z,14.6
2017-11-03T13:08:19.786Z,14.1
2017-11-03T13:09:21.534Z,13.9
2017-11-03T13:10:23.288Z,13.9
2017-11-03T13:11:26.142Z,16.4
2017-11-03T13:12:27.886Z,16.1
2017-11-03T13:13:29.642Z,19.3
2017-11-03T13:14:31.383Z,19.2
2017-11-03T13:15:33.180Z,18.6
2017-11-03T13:16:34.943Z,19.2
2017-11-03T13:17:36.686Z,19.0
2017-11-03T13:18:38.420Z,19.9
2017-11-03T13:19:40.200Z,19.3
2017-11-03T13:20:42.004Z,19.5
2017-11-03T13:21:43.787Z,20.8
2017-11-03T13:22:45.542Z,20.0
2017-11-03T13:23:47.327Z,20.7
2017-11-03T13:24:49.136Z,20.0
2017-11-03T13:25:50.889Z,19.8
2017-11-03T13:26:52.667Z,18.8
2017-11-03T13:27:54.474Z,18.9
2017-11-03T13:28:59.261Z,18.0
2017-11-03T13:30:01.105Z,21.2
2017-11-03T13:31:02.844Z,17.9
2017-11-03T13:32:04.693Z,20.3
2017-11-03T13:33:06.467Z,20.6
2017-11-03T13:34:08.344Z,19.8
2017-11-03T13:35:15.007Z,17.8
2017-11-03T13:36:25.616Z,15.3
2017-11-03T13:37:36.030Z,17.0
2017-11-03T13:38:48.848Z,17.2
2017-11-03T13:40:06.674Z,18.6
2017-11-03T13:41:08.238Z,17.7
2017-11-03T13:42:10.049Z,19.1
2017-11-03T13:43:11.906Z,19.5
2017-11-03T13:44:13.688Z,19.0
2017-11-03T13:45:17.795Z,21.6
2017-11-03T13:46:19.554Z,21.5
2017-11-03T13:47:21.292Z,20.5
2017-11-03T13:48:23.095Z,19.5
2017-11-03T13:49:25.364Z,17.8
2017-11-03T13:50:27.074Z,20.4
2017-11-03T13:51:28.834Z,17.4
2017-11-03T13:52:30.660Z,19.6
2017-11-03T13:53:32.358Z,20.2
2017-11-03T13:54:34.148Z,20.2
2017-11-03T13:55:35.894Z,17.9
2017-11-03T13:56:37.689Z,19.2
2017-11-03T13:57:39.554Z,21.4
2017-11-03T13:58:42.333Z,18.9
2017-11-03T13:59:44.235Z,21.1
2017-11-03T14:00:46.018Z,22.3
2017-11-03T14:01:47.770Z,21.0